Thurso, Canada
Current Conditions -  °F | °C
As of 9:00 PM on Thursday 20 Nov 2014 (Local Time) from CYND Reporting Station
Overcast Overcast  
Wind Chill: -11°   Ceiling: 5000
Heat Index: -4°   Visibility: 12mi
Dew Point: -7°   Wind: 17mph
Humidity: 80%   Direction: 280°W
Pressure: 29.79"   Gusts: 25mph
Location:  45.58°N, 75.23°W
Report Text: CYND 210200Z 28015G22KT 12SM OVC050 M04/M07 A2979 RMK SC8 LAST OBS/NEXT 211200 UTC SLP092
Loading
Personal Weather Stations






























Interactive Weather Map New forecast layout! Learn more

10-Day Weather Forecast

Advertisements
Track Severe Weather on mobile